createdAt,value
2023-04-11T00:00:25.357Z,51.40
2023-04-11T00:02:54.842Z,51.40
2023-04-11T00:05:22.868Z,51.50
2023-04-11T00:07:50.700Z,51.40
2023-04-11T00:10:20.128Z,51.40
2023-04-11T00:12:48.001Z,51.40
2023-04-11T00:15:16.518Z,51.40
2023-04-11T00:17:45.701Z,51.40
2023-04-11T00:20:14.724Z,51.40
2023-04-11T00:22:43.743Z,51.40
2023-04-11T00:25:11.671Z,51.40
2023-04-11T00:27:40.879Z,51.40
2023-04-11T00:30:09.705Z,51.40
2023-04-11T00:32:37.627Z,51.40
2023-04-11T00:35:06.512Z,51.40
2023-04-11T00:37:36.252Z,51.40
2023-04-11T00:40:06.545Z,51.40
2023-04-11T00:42:34.416Z,51.40
2023-04-11T00:45:04.177Z,51.40
2023-04-11T00:47:34.345Z,51.40
2023-04-11T00:50:02.370Z,51.40
2023-04-11T00:52:30.605Z,51.40
2023-04-11T00:54:59.326Z,51.40
2023-04-11T00:57:27.186Z,51.40
2023-04-11T00:59:55.672Z,51.40
2023-04-11T01:02:26.176Z,51.40
2023-04-11T01:04:54.350Z,51.40
2023-04-11T01:07:24.218Z,51.40
2023-04-11T01:09:54.325Z,51.40
2023-04-11T01:12:22.516Z,51.50
2023-04-11T01:14:50.585Z,51.40
2023-04-11T01:17:18.508Z,51.40
2023-04-11T01:19:47.754Z,51.50
2023-04-11T01:22:18.098Z,51.40
2023-04-11T01:24:47.500Z,51.40
2023-04-11T01:27:15.624Z,51.40
2023-04-11T01:29:43.599Z,51.40
2023-04-11T01:32:11.474Z,51.50
2023-04-11T01:34:41.362Z,51.40
2023-04-11T01:37:09.671Z,51.40
2023-04-11T01:39:37.546Z,51.40
2023-04-11T01:42:08.035Z,51.40
2023-04-11T01:44:37.366Z,51.40
2023-04-11T01:47:05.445Z,51.50
2023-04-11T01:49:33.555Z,51.40
2023-04-11T01:52:01.471Z,51.50
2023-04-11T01:54:29.359Z,51.40
2023-04-11T01:56:57.555Z,51.60
2023-04-11T01:59:27.214Z,51.60
2023-04-11T02:01:55.392Z,51.60
2023-04-11T02:04:23.401Z,51.60
2023-04-11T02:06:51.350Z,51.60
2023-04-11T02:09:19.585Z,51.60
2023-04-11T02:11:47.476Z,51.60
2023-04-11T02:14:16.324Z,51.60
2023-04-11T02:16:52.755Z,51.50
2023-04-11T02:19:22.174Z,51.60
2023-04-11T02:21:50.519Z,51.60
2023-04-11T02:24:18.402Z,51.50
2023-04-11T02:26:46.249Z,51.60
2023-04-11T02:29:14.121Z,51.60
2023-04-11T02:31:42.156Z,51.60
2023-04-11T02:34:11.496Z,51.60
2023-04-11T02:36:39.363Z,51.60
2023-04-11T02:39:07.549Z,51.60
2023-04-11T02:41:35.465Z,51.60
2023-04-11T02:44:03.339Z,51.60
2023-04-11T02:46:31.342Z,51.60
2023-04-11T02:48:59.183Z,51.60
2023-04-11T02:51:28.502Z,51.60
2023-04-11T02:53:56.614Z,51.70
2023-04-11T02:56:24.456Z,52.30
2023-04-11T02:58:53.498Z,51.60
2023-04-11T03:01:24.899Z,51.60
2023-04-11T03:03:53.335Z,51.60
2023-04-11T03:06:21.437Z,51.70
2023-04-11T03:08:52.568Z,51.70
2023-04-11T03:11:20.525Z,51.70
2023-04-11T03:13:48.400Z,51.70
2023-04-11T03:16:16.268Z,51.70
2023-04-11T03:18:44.118Z,51.70
2023-04-11T03:21:12.321Z,51.70
2023-04-11T03:23:40.355Z,51.70
2023-04-11T03:26:09.814Z,51.70
2023-04-11T03:28:37.706Z,51.70
2023-04-11T03:31:06.024Z,51.70
2023-04-11T03:33:33.954Z,51.70
2023-04-11T03:36:01.904Z,51.70
2023-04-11T03:38:30.250Z,51.70
2023-04-11T03:40:58.218Z,51.70
2023-04-11T03:43:27.486Z,51.70
2023-04-11T03:45:55.454Z,51.70
2023-04-11T03:48:26.347Z,51.70
2023-04-11T03:50:54.313Z,51.70
2023-04-11T03:53:22.626Z,51.70
2023-04-11T03:55:52.645Z,51.70
2023-04-11T03:58:21.436Z,51.70
2023-04-11T04:00:50.867Z,51.80
2023-04-11T04:03:18.906Z,51.80
2023-04-11T04:05:46.977Z,51.80
2023-04-11T04:08:15.149Z,51.80
2023-04-11T04:10:43.008Z,51.80
2023-04-11T04:13:10.860Z,51.80
2023-04-11T04:15:38.721Z,51.80
2023-04-11T04:18:07.990Z,51.80
2023-04-11T04:20:35.968Z,51.80
2023-04-11T04:23:04.697Z,51.80
2023-04-11T04:25:32.702Z,51.80
2023-04-11T04:28:01.009Z,51.80
2023-04-11T04:30:29.528Z,51.80
2023-04-11T04:32:58.984Z,51.80
2023-04-11T04:35:28.618Z,51.80
2023-04-11T04:37:56.506Z,51.80
2023-04-11T04:40:24.329Z,51.80
2023-04-11T04:42:58.196Z,51.80
2023-04-11T04:45:26.722Z,51.80
2023-04-11T04:47:54.702Z,51.80
2023-04-11T04:50:22.650Z,51.80
2023-04-11T04:52:51.861Z,51.80
2023-04-11T04:55:19.815Z,51.80
2023-04-11T04:57:47.679Z,51.80
2023-04-11T05:00:16.645Z,51.80
2023-04-11T05:02:44.866Z,51.80
2023-04-11T05:05:13.934Z,51.80
2023-04-11T05:07:42.520Z,51.80
2023-04-11T05:10:12.110Z,51.80
2023-04-11T05:12:39.960Z,51.80
2023-04-11T05:15:11.536Z,51.80
2023-04-11T05:17:39.453Z,51.80
2023-04-11T05:20:08.962Z,51.80
2023-04-11T05:22:37.898Z,51.80
2023-04-11T05:25:08.833Z,51.80
2023-04-11T05:27:38.101Z,51.80
2023-04-11T05:30:06.950Z,51.80
2023-04-11T05:32:34.937Z,51.80
2023-04-11T05:35:03.157Z,51.80
2023-04-11T05:37:32.299Z,51.80
2023-04-11T05:40:00.360Z,51.80
2023-04-11T05:42:28.339Z,51.80
2023-04-11T05:44:57.524Z,51.80
2023-04-11T05:47:25.428Z,51.80
2023-04-11T05:49:53.340Z,52.40
2023-04-11T05:52:21.211Z,51.80
2023-04-11T05:54:49.059Z,51.80
2023-04-11T05:57:17.527Z,51.80
2023-04-11T05:59:49.624Z,51.80
2023-04-11T06:02:18.938Z,51.80
2023-04-11T06:04:47.032Z,51.80
2023-04-11T06:07:15.160Z,51.80
2023-04-11T06:09:43.127Z,52.40
2023-04-11T06:12:11.484Z,51.80
2023-04-11T06:14:40.611Z,51.80
2023-04-11T06:17:09.570Z,51.80
2023-04-11T06:19:39.222Z,51.80
2023-04-11T06:22:07.127Z,51.80
2023-04-11T06:24:39.393Z,51.80
2023-04-11T06:27:09.916Z,51.80
2023-04-11T06:29:37.904Z,51.80
2023-04-11T06:32:06.143Z,51.80
2023-04-11T06:34:34.189Z,51.80
2023-04-11T06:37:03.434Z,51.80
2023-04-11T06:39:31.543Z,51.80
2023-04-11T06:41:59.500Z,51.70
2023-04-11T06:44:27.409Z,51.80
2023-04-11T06:46:55.680Z,51.80
2023-04-11T06:49:24.304Z,52.40
2023-04-11T06:51:52.354Z,51.80
2023-04-11T06:54:22.033Z,51.80
2023-04-11T06:56:50.621Z,51.80
2023-04-11T06:59:19.561Z,51.80
2023-04-11T07:01:47.629Z,51.80
2023-04-11T07:04:15.678Z,51.70
2023-04-11T07:06:43.988Z,51.80
2023-04-11T07:09:12.590Z,51.80
2023-04-11T07:11:42.068Z,51.80
2023-04-11T07:14:09.913Z,51.80
2023-04-11T07:16:37.871Z,51.80
2023-04-11T07:19:05.957Z,51.80
2023-04-11T07:21:33.815Z,51.80
2023-04-11T07:24:01.703Z,51.80
2023-04-11T07:26:32.493Z,51.70
2023-04-11T07:29:02.176Z,51.80
2023-04-11T07:31:30.141Z,51.80
2023-04-11T07:33:58.470Z,51.80
2023-04-11T07:36:26.672Z,51.80
2023-04-11T07:38:54.570Z,51.80
2023-04-11T07:41:22.420Z,51.80
2023-04-11T07:43:50.337Z,51.80
2023-04-11T07:46:19.585Z,51.80
2023-04-11T07:48:47.500Z,51.80
2023-04-11T07:51:16.934Z,51.80
2023-04-11T07:53:44.899Z,51.80
2023-04-11T07:56:13.127Z,51.80
2023-04-11T07:58:41.029Z,51.80
2023-04-11T08:01:22.094Z,51.80
2023-04-11T08:03:50.138Z,51.80
2023-04-11T08:06:18.139Z,51.80
2023-04-11T08:08:46.341Z,51.80
2023-04-11T08:11:14.412Z,51.80
2023-04-11T08:13:42.626Z,51.80
2023-04-11T08:16:12.096Z,51.80
2023-04-11T08:18:42.552Z,51.80
2023-04-11T08:21:12.059Z,51.80
2023-04-11T08:23:42.175Z,51.80
2023-04-11T08:26:11.910Z,51.80
2023-04-11T08:28:42.426Z,51.80
2023-04-11T08:31:12.608Z,51.80
2023-04-11T08:33:42.516Z,51.80
2023-04-11T08:36:11.340Z,51.70
2023-04-11T08:38:40.296Z,51.70
2023-04-11T08:41:08.383Z,51.70
2023-04-11T08:43:36.948Z,51.70
2023-04-11T08:46:05.058Z,51.70
2023-04-11T08:48:33.089Z,51.70
2023-04-11T08:51:02.402Z,51.70
2023-04-11T08:53:31.470Z,51.70
2023-04-11T08:55:59.829Z,51.70
2023-04-11T08:58:27.758Z,51.70
2023-04-11T09:00:55.839Z,51.70
2023-04-11T09:03:23.785Z,51.70
2023-04-11T09:05:51.863Z,51.70
2023-04-11T09:08:21.090Z,51.70
2023-04-11T09:10:48.939Z,52.40
2023-04-11T09:13:22.255Z,51.70
2023-04-11T09:16:05.705Z,51.70
2023-04-11T09:18:34.231Z,51.70
2023-04-11T09:21:04.832Z,51.70
2023-04-11T09:23:34.202Z,51.70
2023-04-11T09:26:02.181Z,51.70
2023-04-11T09:28:41.578Z,51.70
2023-04-11T09:31:12.919Z,51.70
2023-04-11T09:33:52.646Z,51.70
2023-04-11T09:36:21.775Z,51.70
2023-04-11T09:38:51.338Z,51.70
2023-04-11T09:41:31.334Z,51.70
2023-04-11T09:43:59.683Z,51.70
2023-04-11T09:46:27.629Z,51.70
2023-04-11T09:48:57.027Z,51.60
2023-04-11T09:51:35.218Z,51.60
2023-04-11T09:54:06.457Z,51.60
2023-04-11T09:56:35.555Z,51.60
2023-04-11T09:59:04.722Z,52.20
2023-04-11T10:01:32.911Z,51.60
2023-04-11T10:04:01.837Z,51.60
2023-04-11T10:06:33.780Z,51.60
2023-04-11T10:09:13.820Z,51.60
2023-04-11T10:11:43.600Z,51.60
2023-04-11T10:14:39.847Z,51.60
2023-04-11T10:17:19.725Z,51.60
2023-04-11T10:19:51.417Z,51.50
2023-04-11T10:22:56.416Z,51.50
2023-04-11T10:25:27.188Z,51.50
2023-04-11T10:28:00.677Z,51.50
2023-04-11T10:31:00.612Z,51.50
2023-04-11T10:33:28.820Z,51.50
2023-04-11T10:36:02.146Z,51.50
2023-04-11T10:38:49.800Z,51.50
2023-04-11T10:41:31.443Z,51.50
2023-04-11T10:44:18.183Z,51.50
2023-04-11T10:46:48.156Z,51.50
2023-04-11T10:49:34.979Z,51.50
2023-04-11T10:52:18.117Z,51.50
2023-04-11T10:54:47.070Z,51.50
2023-04-11T10:57:16.789Z,51.50
2023-04-11T11:00:00.950Z,51.50
2023-04-11T11:02:40.119Z,51.50
2023-04-11T11:05:22.079Z,51.50
2023-04-11T11:07:54.645Z,51.50
2023-04-11T11:10:43.368Z,51.50
2023-04-11T11:13:15.326Z,51.50
2023-04-11T11:15:48.986Z,51.50
2023-04-11T11:18:17.666Z,51.50
2023-04-11T11:20:45.601Z,51.50
2023-04-11T11:23:13.591Z,51.50
2023-04-11T11:25:41.922Z,51.50
2023-04-11T11:28:11.919Z,51.50
2023-04-11T11:30:50.536Z,51.50
2023-04-11T11:33:21.849Z,51.50
2023-04-11T11:35:54.439Z,51.50
2023-04-11T11:38:25.886Z,51.50
2023-04-11T11:40:54.277Z,51.50
2023-04-11T11:43:23.746Z,51.50
2023-04-11T11:46:10.226Z,51.40
2023-04-11T11:48:38.413Z,51.40
2023-04-11T11:51:07.163Z,51.50
2023-04-11T11:53:35.059Z,51.60
2023-04-11T11:56:13.657Z,51.50
2023-04-11T11:58:46.308Z,51.40
2023-04-11T12:01:17.016Z,51.40
2023-04-11T12:03:45.613Z,51.40
2023-04-11T12:06:13.889Z,51.40
2023-04-11T12:08:45.715Z,51.40
2023-04-11T12:11:16.565Z,51.40
2023-04-11T12:13:46.609Z,51.40
2023-04-11T12:16:15.989Z,51.40
2023-04-11T12:18:45.192Z,51.40
2023-04-11T12:21:13.245Z,51.30
2023-04-11T12:23:41.081Z,51.30
2023-04-11T12:26:08.954Z,51.30
2023-04-11T12:28:36.816Z,51.40
2023-04-11T12:31:06.334Z,51.30
2023-04-11T12:33:34.287Z,51.30
2023-04-11T12:36:02.337Z,51.30
2023-04-11T12:38:30.402Z,51.30
2023-04-11T12:41:14.386Z,51.30
2023-04-11T12:43:46.161Z,51.30
2023-04-11T12:46:16.920Z,51.30
2023-04-11T12:48:44.874Z,51.30
2023-04-11T12:51:12.725Z,51.30
2023-04-11T12:53:40.588Z,51.40
2023-04-11T12:56:09.534Z,51.40
2023-04-11T12:58:37.432Z,51.30
2023-04-11T13:01:06.246Z,51.30
2023-04-11T13:03:35.570Z,51.30
2023-04-11T13:06:03.529Z,51.30
2023-04-11T13:08:31.485Z,51.30
2023-04-11T13:10:59.337Z,51.30
2023-04-11T13:13:27.172Z,51.30
2023-04-11T13:15:55.080Z,51.40
2023-04-11T13:18:23.166Z,51.30
2023-04-11T13:20:52.474Z,51.30
2023-04-11T13:23:20.633Z,51.30
2023-04-11T13:25:48.571Z,51.30
2023-04-11T13:28:16.612Z,51.30
2023-04-11T13:30:44.538Z,51.30
2023-04-11T13:33:12.571Z,51.30
2023-04-11T13:35:40.414Z,51.40
2023-04-11T13:38:11.174Z,51.40
2023-04-11T13:40:40.197Z,51.30
2023-04-11T13:43:08.074Z,51.20
2023-04-11T13:45:35.981Z,51.20
2023-04-11T13:48:04.048Z,51.30
2023-04-11T13:50:34.782Z,51.30
2023-04-11T13:53:02.711Z,51.20
2023-04-11T13:55:31.968Z,51.30
2023-04-11T13:57:59.881Z,51.30
2023-04-11T14:00:27.723Z,51.30
2023-04-11T14:02:55.760Z,51.20
2023-04-11T14:05:25.182Z,51.30
2023-04-11T14:07:53.229Z,51.40
2023-04-11T14:10:21.101Z,51.20
2023-04-11T14:12:50.923Z,51.40
2023-04-11T14:15:20.015Z,51.30
2023-04-11T14:17:49.142Z,51.30
2023-04-11T14:20:17.148Z,51.30
2023-04-11T14:22:46.076Z,51.30
2023-04-11T14:25:15.665Z,51.30
2023-04-11T14:27:43.770Z,51.30
2023-04-11T14:30:14.191Z,51.30
2023-04-11T14:32:42.608Z,51.30
2023-04-11T14:35:10.901Z,51.30
2023-04-11T14:37:38.766Z,51.30
2023-04-11T14:40:10.111Z,51.30
2023-04-11T14:42:38.044Z,51.30
2023-04-11T14:45:06.992Z,51.30
2023-04-11T14:47:36.288Z,51.20
2023-04-11T14:50:04.248Z,51.20
2023-04-11T14:52:32.170Z,51.30
2023-04-11T14:55:00.050Z,51.30
2023-04-11T14:57:45.039Z,51.30
2023-04-11T15:00:18.975Z,51.30
2023-04-11T15:02:49.762Z,51.20
2023-04-11T15:05:19.547Z,51.30
2023-04-11T15:07:48.844Z,51.20
2023-04-11T15:10:19.838Z,51.20
2023-04-11T15:12:47.989Z,51.20
2023-04-11T15:15:16.337Z,51.20
2023-04-11T15:17:46.486Z,51.20
2023-04-11T15:20:16.879Z,51.20
2023-04-11T15:22:46.256Z,51.20
2023-04-11T15:25:16.185Z,51.20
2023-04-11T15:27:44.521Z,51.20
2023-04-11T15:30:13.062Z,51.20
2023-04-11T15:32:43.826Z,51.30
2023-04-11T15:35:12.243Z,51.30
2023-04-11T15:37:42.417Z,51.30
2023-04-11T15:40:12.258Z,51.30
2023-04-11T15:42:40.582Z,51.30
2023-04-11T15:45:09.324Z,51.30
2023-04-11T15:47:37.198Z,51.30
2023-04-11T15:50:05.633Z,51.30
2023-04-11T15:52:33.571Z,51.20
2023-04-11T15:55:02.790Z,51.20
2023-04-11T15:57:30.646Z,51.20
2023-04-11T15:59:59.707Z,51.20
2023-04-11T16:02:28.119Z,51.20
2023-04-11T16:04:56.422Z,51.20
2023-04-11T16:07:24.869Z,51.20
2023-04-11T16:09:52.766Z,51.10
2023-04-11T16:12:22.032Z,51.10
2023-04-11T16:14:49.900Z,51.10
2023-04-11T16:17:19.034Z,51.10
2023-04-11T16:19:46.973Z,51.00
2023-04-11T16:22:14.896Z,51.00
2023-04-11T16:24:42.782Z,50.90
2023-04-11T16:27:10.651Z,51.00
2023-04-11T16:29:39.867Z,51.60
2023-04-11T16:32:07.847Z,50.90
2023-04-11T16:34:35.948Z,50.90
2023-04-11T16:37:03.859Z,51.00
2023-04-11T16:39:31.686Z,51.10
2023-04-11T16:41:59.574Z,51.10
2023-04-11T16:44:27.746Z,51.10
2023-04-11T16:46:57.014Z,51.20
2023-04-11T16:49:24.941Z,51.20
2023-04-11T16:51:53.055Z,51.20
2023-04-11T16:54:21.067Z,51.20
2023-04-11T16:56:48.918Z,51.20
2023-04-11T16:59:17.267Z,51.30
2023-04-11T17:01:45.635Z,51.20
2023-04-11T17:04:14.993Z,51.30
2023-04-11T17:06:42.945Z,51.20
2023-04-11T17:09:10.966Z,51.30
2023-04-11T17:11:39.566Z,51.20
2023-04-11T17:14:07.831Z,51.20
2023-04-11T17:16:35.744Z,51.20
2023-04-11T17:19:03.695Z,51.30
2023-04-11T17:21:33.074Z,51.30
2023-04-11T17:24:01.125Z,51.30
2023-04-11T17:26:29.280Z,51.30
2023-04-11T17:28:57.175Z,51.30
2023-04-11T17:31:27.577Z,51.30
2023-04-11T17:33:55.823Z,51.30
2023-04-11T17:36:24.282Z,51.30
2023-04-11T17:38:54.726Z,51.30
2023-04-11T17:41:22.795Z,51.20
2023-04-11T17:43:50.724Z,51.20
2023-04-11T17:46:20.225Z,51.20
2023-04-11T17:48:48.162Z,51.30
2023-04-11T17:51:16.334Z,51.30
2023-04-11T17:53:44.199Z,51.30
2023-04-11T17:56:14.385Z,51.30
2023-04-11T17:58:44.845Z,51.30
2023-04-11T18:01:12.864Z,51.30
2023-04-11T18:03:41.230Z,51.30
2023-04-11T18:06:10.874Z,51.30
2023-04-11T18:08:50.381Z,51.30
2023-04-11T18:11:21.067Z,51.40
2023-04-11T18:13:50.463Z,51.30
2023-04-11T18:16:18.663Z,51.30
2023-04-11T18:18:48.026Z,51.30
2023-04-11T18:21:15.969Z,51.30
2023-04-11T18:23:43.897Z,51.30
2023-04-11T18:26:11.815Z,51.40
2023-04-11T18:28:41.008Z,51.30
2023-04-11T18:31:09.468Z,51.30
2023-04-11T18:33:41.415Z,51.30
2023-04-11T18:36:11.921Z,51.40
2023-04-11T18:38:40.139Z,51.40
2023-04-11T18:41:08.590Z,51.40
2023-04-11T18:43:38.360Z,51.40
2023-04-11T18:46:09.652Z,52.00
2023-04-11T18:48:37.726Z,51.40
2023-04-11T18:51:06.157Z,51.40
2023-04-11T18:53:34.905Z,51.30
2023-04-11T18:56:03.526Z,51.40
2023-04-11T18:58:33.282Z,51.40
2023-04-11T19:01:14.141Z,51.40
2023-04-11T19:03:46.306Z,51.40
2023-04-11T19:06:14.764Z,51.40
2023-04-11T19:08:42.640Z,52.00
2023-04-11T19:11:10.634Z,51.40
2023-04-11T19:13:38.624Z,51.40
2023-04-11T19:16:07.189Z,51.40
2023-04-11T19:18:35.092Z,51.40
2023-04-11T19:21:04.460Z,51.40
2023-04-11T19:23:32.392Z,51.30
2023-04-11T19:26:00.722Z,51.40
2023-04-11T19:28:29.148Z,51.30
2023-04-11T19:30:57.021Z,51.40
2023-04-11T19:33:26.066Z,51.40
2023-04-11T19:35:54.231Z,51.40
2023-04-11T19:38:23.498Z,51.40
2023-04-11T19:40:51.354Z,51.40
2023-04-11T19:43:19.716Z,51.30
2023-04-11T19:45:47.721Z,51.30
2023-04-11T19:48:16.134Z,51.40
2023-04-11T19:50:44.200Z,51.30
2023-04-11T19:53:12.070Z,51.30
2023-04-11T19:55:41.308Z,51.30
2023-04-11T19:58:09.187Z,51.30
2023-04-11T20:00:38.545Z,51.40
2023-04-11T20:03:08.036Z,51.30
2023-04-11T20:05:36.175Z,51.30
2023-04-11T20:08:04.110Z,51.40
2023-04-11T20:10:32.164Z,51.30
2023-04-11T20:13:01.511Z,51.30
2023-04-11T20:15:29.570Z,52.00
2023-04-11T20:17:57.579Z,51.30
2023-04-11T20:20:27.780Z,51.30
2023-04-11T20:22:55.711Z,51.40
2023-04-11T20:25:23.932Z,51.30
2023-04-11T20:27:51.809Z,51.40
2023-04-11T20:30:21.854Z,51.30
2023-04-11T20:32:49.802Z,51.40
2023-04-11T20:35:19.249Z,51.40
2023-04-11T20:37:49.889Z,51.40
2023-04-11T20:40:18.209Z,51.40
2023-04-11T20:42:47.445Z,51.40
2023-04-11T20:45:16.903Z,51.40
2023-04-11T20:47:47.541Z,51.30
2023-04-11T20:50:16.995Z,51.40
2023-04-11T20:52:46.636Z,51.40
2023-04-11T20:55:15.596Z,51.30
2023-04-11T20:57:44.673Z,51.40
2023-04-11T21:00:14.873Z,51.40
2023-04-11T21:02:45.032Z,51.40
2023-04-11T21:05:18.273Z,51.40
2023-04-11T21:07:46.758Z,51.40
2023-04-11T21:10:15.615Z,51.30
2023-04-11T21:12:50.974Z,51.30
2023-04-11T21:15:19.820Z,51.30
2023-04-11T21:17:48.123Z,51.30
2023-04-11T21:20:20.984Z,51.40
2023-04-11T21:22:50.038Z,51.30
2023-04-11T21:25:17.991Z,51.30
2023-04-11T21:27:46.641Z,51.30
2023-04-11T21:30:15.660Z,51.40
2023-04-11T21:32:43.555Z,51.40
2023-04-11T21:35:12.701Z,51.40
2023-04-11T21:37:42.016Z,51.40
2023-04-11T21:40:10.764Z,51.40
2023-04-11T21:42:39.708Z,51.40
2023-04-11T21:45:09.249Z,51.40
2023-04-11T21:47:37.188Z,51.40
2023-04-11T21:50:05.551Z,51.30
2023-04-11T21:52:33.743Z,51.40
2023-04-11T21:55:03.118Z,51.40
2023-04-11T21:57:33.677Z,51.40
2023-04-11T22:00:02.435Z,51.40
2023-04-11T22:02:30.683Z,51.30
2023-04-11T22:05:06.616Z,51.30
2023-04-11T22:07:39.354Z,51.30
2023-04-11T22:10:12.341Z,51.30
2023-04-11T22:12:40.612Z,51.30
2023-04-11T22:15:12.362Z,51.30
2023-04-11T22:17:41.767Z,51.30
2023-04-11T22:20:11.085Z,51.30
2023-04-11T22:22:39.093Z,51.30
2023-04-11T22:25:09.924Z,51.30
2023-04-11T22:27:38.480Z,51.30
2023-04-11T22:30:08.635Z,51.40
2023-04-11T22:32:36.976Z,51.30
2023-04-11T22:35:05.629Z,51.30
2023-04-11T22:37:33.503Z,51.30
2023-04-11T22:40:01.705Z,51.30
2023-04-11T22:42:31.552Z,51.40
2023-04-11T22:44:59.420Z,51.30
2023-04-11T22:47:28.871Z,51.40
2023-04-11T22:49:57.833Z,51.30
2023-04-11T22:52:26.045Z,51.30
2023-04-11T22:54:54.247Z,51.40
2023-04-11T22:57:22.105Z,51.30
2023-04-11T22:59:51.362Z,51.40
2023-04-11T23:02:19.247Z,51.20
2023-04-11T23:04:47.147Z,51.30
2023-04-11T23:07:16.958Z,52.00
2023-04-11T23:09:44.939Z,51.40
2023-04-11T23:12:12.877Z,51.40
2023-04-11T23:14:40.840Z,51.40
2023-04-11T23:17:10.092Z,51.30
2023-04-11T23:19:39.264Z,51.20
2023-04-11T23:22:07.492Z,51.30
2023-04-11T23:24:35.545Z,51.30
2023-04-11T23:27:03.453Z,51.30
2023-04-11T23:29:31.888Z,51.30
2023-04-11T23:31:59.778Z,51.20
2023-04-11T23:34:29.082Z,51.30
2023-04-11T23:36:58.063Z,51.20
2023-04-11T23:39:26.400Z,51.20
2023-04-11T23:41:54.350Z,51.30
2023-04-11T23:44:22.610Z,51.30
2023-04-11T23:46:50.535Z,51.40
2023-04-11T23:49:18.369Z,51.30
2023-04-11T23:51:47.530Z,51.20
2023-04-11T23:54:15.412Z,51.30
2023-04-11T23:56:44.154Z,51.40
2023-04-11T23:59:12.165Z,51.20
